sensor_id;sensor_type;location;lat;lon;timestamp;temperature;humidity
5850;DHT22;2951;47.712;9.400;2023-12-20T00:02:17;4.80;99.90
5850;DHT22;2951;47.712;9.400;2023-12-20T00:04:44;4.80;99.90
5850;DHT22;2951;47.712;9.400;2023-12-20T00:07:14;4.90;99.90
5850;DHT22;2951;47.712;9.400;2023-12-20T00:09:40;4.80;99.90
5850;DHT22;2951;47.712;9.400;2023-12-20T00:12:07;4.80;99.90
5850;DHT22;2951;47.712;9.400;2023-12-20T00:14:35;4.70;99.90
5850;DHT22;2951;47.712;9.400;2023-12-20T00:17:02;4.80;99.90
5850;DHT22;2951;47.712;9.400;2023-12-20T00:19:29;4.80;99.90
5850;DHT22;2951;47.712;9.400;2023-12-20T00:21:56;4.80;99.90
5850;DHT22;2951;47.712;9.400;2023-12-20T00:24:23;4.80;99.90
5850;DHT22;2951;47.712;9.400;2023-12-20T00:26:49;4.80;99.90
5850;DHT22;2951;47.712;9.400;2023-12-20T00:29:16;4.80;99.90
5850;DHT22;2951;47.712;9.400;2023-12-20T00:31:43;4.80;99.90
5850;DHT22;2951;47.712;9.400;2023-12-20T00:34:10;4.80;99.90
5850;DHT22;2951;47.712;9.400;2023-12-20T00:36:37;4.80;99.90
5850;DHT22;2951;47.712;9.400;2023-12-20T00:39:04;4.80;99.90
5850;DHT22;2951;47.712;9.400;2023-12-20T00:41:31;4.80;99.90
5850;DHT22;2951;47.712;9.400;2023-12-20T00:43:57;4.70;99.90
5850;DHT22;2951;47.712;9.400;2023-12-20T00:46:24;4.70;99.90
5850;DHT22;2951;47.712;9.400;2023-12-20T00:48:51;4.80;99.90
5850;DHT22;2951;47.712;9.400;2023-12-20T00:51:20;4.80;99.90
5850;DHT22;2951;47.712;9.400;2023-12-20T00:53:47;4.80;99.90
5850;DHT22;2951;47.712;9.400;2023-12-20T00:56:16;4.80;99.90
5850;DHT22;2951;47.712;9.400;2023-12-20T00:58:43;4.90;99.90
5850;DHT22;2951;47.712;9.400;2023-12-20T01:01:09;4.90;99.90
5850;DHT22;2951;47.712;9.400;2023-12-20T01:03:36;4.90;99.90
5850;DHT22;2951;47.712;9.400;2023-12-20T01:06:04;4.90;99.90
5850;DHT22;2951;47.712;9.400;2023-12-20T01:11:28;4.90;99.90
5850;DHT22;2951;47.712;9.400;2023-12-20T01:13:55;4.90;99.90
5850;DHT22;2951;47.712;9.400;2023-12-20T01:16:21;4.90;99.90
5850;DHT22;2951;47.712;9.400;2023-12-20T01:18:48;4.90;99.90
5850;DHT22;2951;47.712;9.400;2023-12-20T01:21:15;4.90;99.90
5850;DHT22;2951;47.712;9.400;2023-12-20T01:23:42;4.90;99.90
5850;DHT22;2951;47.712;9.400;2023-12-20T01:26:10;4.80;99.90
5850;DHT22;2951;47.712;9.400;2023-12-20T01:28:37;4.80;99.90
5850;DHT22;2951;47.712;9.400;2023-12-20T01:31:04;4.80;99.90
5850;DHT22;2951;47.712;9.400;2023-12-20T01:33:31;4.90;99.90
5850;DHT22;2951;47.712;9.400;2023-12-20T01:35:57;4.90;99.90
5850;DHT22;2951;47.712;9.400;2023-12-20T01:38:24;5.00;99.90
5850;DHT22;2951;47.712;9.400;2023-12-20T01:40:51;5.00;99.90
5850;DHT22;2951;47.712;9.400;2023-12-20T01:43:18;5.10;99.90
5850;DHT22;2951;47.712;9.400;2023-12-20T01:45:45;5.10;99.90
5850;DHT22;2951;47.712;9.400;2023-12-20T01:48:16;5.10;99.90
5850;DHT22;2951;47.712;9.400;2023-12-20T01:50:43;5.10;99.90
5850;DHT22;2951;47.712;9.400;2023-12-20T01:53:11;5.10;99.90
5850;DHT22;2951;47.712;9.400;2023-12-20T01:55:39;5.10;99.90
5850;DHT22;2951;47.712;9.400;2023-12-20T01:58:06;5.20;99.90
5850;DHT22;2951;47.712;9.400;2023-12-20T02:00:33;5.10;99.90
5850;DHT22;2951;47.712;9.400;2023-12-20T02:03:02;5.00;99.90
5850;DHT22;2951;47.712;9.400;2023-12-20T02:05:29;5.10;99.90
5850;DHT22;2951;47.712;9.400;2023-12-20T02:08:25;4.90;99.90
5850;DHT22;2951;47.712;9.400;2023-12-20T02:10:51;5.00;99.90
5850;DHT22;2951;47.712;9.400;2023-12-20T02:13:18;5.00;99.90
5850;DHT22;2951;47.712;9.400;2023-12-20T02:15:45;5.00;99.90
5850;DHT22;2951;47.712;9.400;2023-12-20T02:18:12;5.00;99.90
5850;DHT22;2951;47.712;9.400;2023-12-20T02:20:42;5.00;99.90
5850;DHT22;2951;47.712;9.400;2023-12-20T02:23:10;5.00;99.90
5850;DHT22;2951;47.712;9.400;2023-12-20T02:25:37;5.10;99.90
5850;DHT22;2951;47.712;9.400;2023-12-20T02:28:04;5.10;99.90
5850;DHT22;2951;47.712;9.400;2023-12-20T02:30:34;5.00;99.90
5850;DHT22;2951;47.712;9.400;2023-12-20T02:33:01;5.00;99.90
5850;DHT22;2951;47.712;9.400;2023-12-20T02:35:29;5.10;99.90
5850;DHT22;2951;47.712;9.400;2023-12-20T02:37:57;5.00;99.90
5850;DHT22;2951;47.712;9.400;2023-12-20T02:40:23;5.00;99.90
5850;DHT22;2951;47.712;9.400;2023-12-20T02:42:50;5.00;99.90
5850;DHT22;2951;47.712;9.400;2023-12-20T02:45:17;5.10;99.90
5850;DHT22;2951;47.712;9.400;2023-12-20T02:47:44;5.10;99.90
5850;DHT22;2951;47.712;9.400;2023-12-20T02:50:11;5.10;99.90
5850;DHT22;2951;47.712;9.400;2023-12-20T02:52:38;5.10;99.90
5850;DHT22;2951;47.712;9.400;2023-12-20T02:55:05;5.10;99.90
5850;DHT22;2951;47.712;9.400;2023-12-20T02:57:32;5.10;99.90
5850;DHT22;2951;47.712;9.400;2023-12-20T03:00:01;5.10;99.90
5850;DHT22;2951;47.712;9.400;2023-12-20T03:02:28;5.10;99.90
5850;DHT22;2951;47.712;9.400;2023-12-20T03:04:55;5.10;99.90
5850;DHT22;2951;47.712;9.400;2023-12-20T03:07:25;5.10;99.90
5850;DHT22;2951;47.712;9.400;2023-12-20T03:09:52;5.10;99.90
5850;DHT22;2951;47.712;9.400;2023-12-20T03:12:31;5.20;99.90
5850;DHT22;2951;47.712;9.400;2023-12-20T03:14:58;5.10;99.90
5850;DHT22;2951;47.712;9.400;2023-12-20T03:17:25;5.20;99.90
5850;DHT22;2951;47.712;9.400;2023-12-20T03:19:51;5.30;99.90
5850;DHT22;2951;47.712;9.400;2023-12-20T03:22:18;5.20;99.90
5850;DHT22;2951;47.712;9.400;2023-12-20T03:24:45;5.20;99.90
5850;DHT22;2951;47.712;9.400;2023-12-20T03:27:12;5.20;99.90
5850;DHT22;2951;47.712;9.400;2023-12-20T03:29:41;5.20;99.90
5850;DHT22;2951;47.712;9.400;2023-12-20T03:32:07;5.20;99.90
5850;DHT22;2951;47.712;9.400;2023-12-20T03:34:35;5.20;99.90
5850;DHT22;2951;47.712;9.400;2023-12-20T03:37:02;5.20;99.90
5850;DHT22;2951;47.712;9.400;2023-12-20T03:39:29;5.30;99.90
5850;DHT22;2951;47.712;9.400;2023-12-20T03:41:55;5.30;99.90
5850;DHT22;2951;47.712;9.400;2023-12-20T03:44:22;5.30;99.90
5850;DHT22;2951;47.712;9.400;2023-12-20T03:46:48;5.20;99.90
5850;DHT22;2951;47.712;9.400;2023-12-20T03:49:15;5.20;99.90
5850;DHT22;2951;47.712;9.400;2023-12-20T03:51:43;5.20;99.90
5850;DHT22;2951;47.712;9.400;2023-12-20T03:54:10;5.30;99.90
5850;DHT22;2951;47.712;9.400;2023-12-20T03:56:37;5.20;99.90
5850;DHT22;2951;47.712;9.400;2023-12-20T03:59:04;5.10;99.90
5850;DHT22;2951;47.712;9.400;2023-12-20T04:01:31;5.10;99.90
5850;DHT22;2951;47.712;9.400;2023-12-20T04:03:58;5.00;99.90
5850;DHT22;2951;47.712;9.400;2023-12-20T04:06:25;5.00;99.90
5850;DHT22;2951;47.712;9.400;2023-12-20T04:08:59;4.90;99.90
5850;DHT22;2951;47.712;9.400;2023-12-20T04:11:28;4.90;99.90
5850;DHT22;2951;47.712;9.400;2023-12-20T04:13:58;4.90;99.90
5850;DHT22;2951;47.712;9.400;2023-12-20T04:16:25;4.80;99.90
5850;DHT22;2951;47.712;9.400;2023-12-20T04:18:51;4.80;99.90
5850;DHT22;2951;47.712;9.400;2023-12-20T04:21:20;4.90;99.90
5850;DHT22;2951;47.712;9.400;2023-12-20T04:23:46;4.80;99.90
5850;DHT22;2951;47.712;9.400;2023-12-20T04:26:13;4.80;99.90
5850;DHT22;2951;47.712;9.400;2023-12-20T04:28:40;4.80;99.90
5850;DHT22;2951;47.712;9.400;2023-12-20T04:31:07;4.90;99.90
5850;DHT22;2951;47.712;9.400;2023-12-20T04:33:34;4.80;99.90
5850;DHT22;2951;47.712;9.400;2023-12-20T04:36:01;4.70;99.90
5850;DHT22;2951;47.712;9.400;2023-12-20T04:38:27;4.80;99.90
5850;DHT22;2951;47.712;9.400;2023-12-20T04:40:54;4.70;99.90
5850;DHT22;2951;47.712;9.400;2023-12-20T04:43:21;4.70;99.90
5850;DHT22;2951;47.712;9.400;2023-12-20T04:45:48;4.70;99.90
5850;DHT22;2951;47.712;9.400;2023-12-20T04:48:15;4.80;99.90
5850;DHT22;2951;47.712;9.400;2023-12-20T04:50:43;4.80;99.90
5850;DHT22;2951;47.712;9.400;2023-12-20T04:53:10;4.70;99.90
5850;DHT22;2951;47.712;9.400;2023-12-20T04:55:36;4.80;99.90
5850;DHT22;2951;47.712;9.400;2023-12-20T04:58:05;4.80;99.90
5850;DHT22;2951;47.712;9.400;2023-12-20T05:00:32;4.80;99.90
5850;DHT22;2951;47.712;9.400;2023-12-20T05:02:58;4.80;99.90
5850;DHT22;2951;47.712;9.400;2023-12-20T05:05:25;4.80;99.90
5850;DHT22;2951;47.712;9.400;2023-12-20T05:07:54;4.80;99.90
5850;DHT22;2951;47.712;9.400;2023-12-20T05:10:21;4.80;99.90
5850;DHT22;2951;47.712;9.400;2023-12-20T05:12:48;4.90;99.90
5850;DHT22;2951;47.712;9.400;2023-12-20T05:15:15;4.80;99.90
5850;DHT22;2951;47.712;9.400;2023-12-20T05:17:41;4.80;99.90
5850;DHT22;2951;47.712;9.400;2023-12-20T05:20:09;4.90;99.90
5850;DHT22;2951;47.712;9.400;2023-12-20T05:22:36;4.80;99.90
5850;DHT22;2951;47.712;9.400;2023-12-20T05:25:03;4.80;99.90
5850;DHT22;2951;47.712;9.400;2023-12-20T05:27:31;4.80;99.90
5850;DHT22;2951;47.712;9.400;2023-12-20T05:29:57;4.90;99.90
5850;DHT22;2951;47.712;9.400;2023-12-20T05:32:27;4.90;99.90
5850;DHT22;2951;47.712;9.400;2023-12-20T05:34:56;4.90;99.90
5850;DHT22;2951;47.712;9.400;2023-12-20T05:37:22;4.90;99.90
5850;DHT22;2951;47.712;9.400;2023-12-20T05:39:49;4.90;99.90
5850;DHT22;2951;47.712;9.400;2023-12-20T05:42:16;4.90;99.90
5850;DHT22;2951;47.712;9.400;2023-12-20T05:44:43;5.00;99.90
5850;DHT22;2951;47.712;9.400;2023-12-20T05:47:09;5.00;99.90
5850;DHT22;2951;47.712;9.400;2023-12-20T05:49:36;5.00;99.90
5850;DHT22;2951;47.712;9.400;2023-12-20T05:52:03;5.00;99.90
5850;DHT22;2951;47.712;9.400;2023-12-20T05:54:30;4.90;99.90
5850;DHT22;2951;47.712;9.400;2023-12-20T05:56:59;5.00;99.90
5850;DHT22;2951;47.712;9.400;2023-12-20T05:59:27;5.00;99.90
5850;DHT22;2951;47.712;9.400;2023-12-20T06:01:53;5.00;99.90
5850;DHT22;2951;47.712;9.400;2023-12-20T06:04:20;5.00;99.90
5850;DHT22;2951;47.712;9.400;2023-12-20T06:06:55;5.00;99.90
5850;DHT22;2951;47.712;9.400;2023-12-20T06:09:23;5.00;99.90
5850;DHT22;2951;47.712;9.400;2023-12-20T06:11:50;5.00;99.90
5850;DHT22;2951;47.712;9.400;2023-12-20T06:14:17;5.00;99.90
5850;DHT22;2951;47.712;9.400;2023-12-20T06:16:44;5.00;99.90
5850;DHT22;2951;47.712;9.400;2023-12-20T06:19:11;5.00;99.90
5850;DHT22;2951;47.712;9.400;2023-12-20T06:21:38;5.00;99.90
5850;DHT22;2951;47.712;9.400;2023-12-20T06:24:06;5.10;99.90
5850;DHT22;2951;47.712;9.400;2023-12-20T06:26:33;5.00;99.90
5850;DHT22;2951;47.712;9.400;2023-12-20T06:29:00;5.00;99.90
5850;DHT22;2951;47.712;9.400;2023-12-20T06:31:27;5.00;99.90
5850;DHT22;2951;47.712;9.400;2023-12-20T06:33:53;5.00;99.90
5850;DHT22;2951;47.712;9.400;2023-12-20T06:36:24;4.90;99.90
5850;DHT22;2951;47.712;9.400;2023-12-20T06:38:51;4.90;99.90
5850;DHT22;2951;47.712;9.400;2023-12-20T06:41:18;4.90;99.90
5850;DHT22;2951;47.712;9.400;2023-12-20T06:43:44;5.00;99.90
5850;DHT22;2951;47.712;9.400;2023-12-20T06:46:15;5.00;99.90
5850;DHT22;2951;47.712;9.400;2023-12-20T06:48:43;5.00;99.90
5850;DHT22;2951;47.712;9.400;2023-12-20T06:51:16;5.00;99.90
5850;DHT22;2951;47.712;9.400;2023-12-20T06:53:44;5.00;99.90
5850;DHT22;2951;47.712;9.400;2023-12-20T06:56:11;5.00;99.90
5850;DHT22;2951;47.712;9.400;2023-12-20T06:58:41;5.00;99.90
5850;DHT22;2951;47.712;9.400;2023-12-20T07:01:11;5.10;99.90
5850;DHT22;2951;47.712;9.400;2023-12-20T07:03:39;5.10;99.90
5850;DHT22;2951;47.712;9.400;2023-12-20T07:06:07;5.10;99.90
5850;DHT22;2951;47.712;9.400;2023-12-20T07:11:29;5.20;99.90
5850;DHT22;2951;47.712;9.400;2023-12-20T07:13:58;5.30;99.90
5850;DHT22;2951;47.712;9.400;2023-12-20T07:16:25;5.20;99.90
5850;DHT22;2951;47.712;9.400;2023-12-20T07:18:52;5.30;99.90
5850;DHT22;2951;47.712;9.400;2023-12-20T07:21:19;5.30;99.90
5850;DHT22;2951;47.712;9.400;2023-12-20T07:23:45;5.30;99.90
5850;DHT22;2951;47.712;9.400;2023-12-20T07:26:12;5.30;99.90
5850;DHT22;2951;47.712;9.400;2023-12-20T07:28:42;5.40;99.90
5850;DHT22;2951;47.712;9.400;2023-12-20T07:31:08;5.40;99.90
5850;DHT22;2951;47.712;9.400;2023-12-20T07:33:35;5.30;99.90
5850;DHT22;2951;47.712;9.400;2023-12-20T07:36:05;5.30;99.90
5850;DHT22;2951;47.712;9.400;2023-12-20T07:38:31;5.30;99.90
5850;DHT22;2951;47.712;9.400;2023-12-20T07:40:58;5.30;99.90
5850;DHT22;2951;47.712;9.400;2023-12-20T07:43:25;5.30;99.90
5850;DHT22;2951;47.712;9.400;2023-12-20T07:45:51;5.30;99.90
5850;DHT22;2951;47.712;9.400;2023-12-20T07:48:18;5.30;99.90
5850;DHT22;2951;47.712;9.400;2023-12-20T07:50:45;5.30;99.90
5850;DHT22;2951;47.712;9.400;2023-12-20T07:53:12;5.30;99.90
5850;DHT22;2951;47.712;9.400;2023-12-20T07:55:39;5.30;99.90
5850;DHT22;2951;47.712;9.400;2023-12-20T07:58:05;5.30;99.90
5850;DHT22;2951;47.712;9.400;2023-12-20T08:00:32;5.30;99.90
5850;DHT22;2951;47.712;9.400;2023-12-20T08:02:59;5.30;99.90
5850;DHT22;2951;47.712;9.400;2023-12-20T08:05:26;5.30;99.90
5850;DHT22;2951;47.712;9.400;2023-12-20T08:07:58;5.40;99.90
5850;DHT22;2951;47.712;9.400;2023-12-20T08:10:25;5.40;99.90
5850;DHT22;2951;47.712;9.400;2023-12-20T08:12:53;5.40;99.90
5850;DHT22;2951;47.712;9.400;2023-12-20T08:15:19;5.40;99.90
5850;DHT22;2951;47.712;9.400;2023-12-20T08:17:46;5.30;99.90
5850;DHT22;2951;47.712;9.400;2023-12-20T08:20:14;5.40;99.90
5850;DHT22;2951;47.712;9.400;2023-12-20T08:22:45;5.40;99.90
5850;DHT22;2951;47.712;9.400;2023-12-20T08:25:12;5.50;99.90
5850;DHT22;2951;47.712;9.400;2023-12-20T08:27:39;5.50;99.90
5850;DHT22;2951;47.712;9.400;2023-12-20T08:30:07;5.50;99.90
5850;DHT22;2951;47.712;9.400;2023-12-20T08:32:34;5.60;99.90
5850;DHT22;2951;47.712;9.400;2023-12-20T08:35:03;5.60;99.90
5850;DHT22;2951;47.712;9.400;2023-12-20T08:37:30;5.50;99.90
5850;DHT22;2951;47.712;9.400;2023-12-20T08:39:56;5.50;99.90
5850;DHT22;2951;47.712;9.400;2023-12-20T08:42:24;5.50;99.90
5850;DHT22;2951;47.712;9.400;2023-12-20T08:44:57;5.50;99.90
5850;DHT22;2951;47.712;9.400;2023-12-20T08:47:25;5.50;99.90
5850;DHT22;2951;47.712;9.400;2023-12-20T08:49:52;5.50;99.90
5850;DHT22;2951;47.712;9.400;2023-12-20T08:52:22;5.60;99.90
5850;DHT22;2951;47.712;9.400;2023-12-20T08:54:52;5.60;99.90
5850;DHT22;2951;47.712;9.400;2023-12-20T08:57:20;5.50;99.90
5850;DHT22;2951;47.712;9.400;2023-12-20T08:59:47;5.60;99.90
5850;DHT22;2951;47.712;9.400;2023-12-20T09:02:14;5.60;99.90
5850;DHT22;2951;47.712;9.400;2023-12-20T09:04:42;5.60;99.90
5850;DHT22;2951;47.712;9.400;2023-12-20T09:07:22;5.70;99.90
5850;DHT22;2951;47.712;9.400;2023-12-20T09:09:50;5.70;99.90
5850;DHT22;2951;47.712;9.400;2023-12-20T09:12:17;5.70;99.90
5850;DHT22;2951;47.712;9.400;2023-12-20T09:14:45;5.80;99.90
5850;DHT22;2951;47.712;9.400;2023-12-20T09:17:11;5.80;99.90
5850;DHT22;2951;47.712;9.400;2023-12-20T09:19:38;5.90;99.90
5850;DHT22;2951;47.712;9.400;2023-12-20T09:22:05;5.80;99.90
5850;DHT22;2951;47.712;9.400;2023-12-20T09:24:32;5.80;99.90
5850;DHT22;2951;47.712;9.400;2023-12-20T09:26:59;5.90;99.90
5850;DHT22;2951;47.712;9.400;2023-12-20T09:29:26;5.80;99.90
5850;DHT22;2951;47.712;9.400;2023-12-20T09:31:53;5.90;99.90
5850;DHT22;2951;47.712;9.400;2023-12-20T09:34:20;5.90;99.90
5850;DHT22;2951;47.712;9.400;2023-12-20T09:36:47;5.90;99.90
5850;DHT22;2951;47.712;9.400;2023-12-20T09:39:15;5.90;99.90
5850;DHT22;2951;47.712;9.400;2023-12-20T09:41:46;6.00;99.90
5850;DHT22;2951;47.712;9.400;2023-12-20T09:44:15;6.00;99.90
5850;DHT22;2951;47.712;9.400;2023-12-20T09:46:43;6.00;99.90
5850;DHT22;2951;47.712;9.400;2023-12-20T09:49:10;6.10;99.90
5850;DHT22;2951;47.712;9.400;2023-12-20T09:51:37;6.10;99.90
5850;DHT22;2951;47.712;9.400;2023-12-20T09:54:04;6.10;99.90
5850;DHT22;2951;47.712;9.400;2023-12-20T09:56:31;6.10;99.90
5850;DHT22;2951;47.712;9.400;2023-12-20T09:58:58;6.10;99.90
5850;DHT22;2951;47.712;9.400;2023-12-20T10:01:28;6.10;99.90
5850;DHT22;2951;47.712;9.400;2023-12-20T10:03:55;6.20;99.90
5850;DHT22;2951;47.712;9.400;2023-12-20T10:06:22;6.40;99.90
5850;DHT22;2951;47.712;9.400;2023-12-20T10:08:49;6.40;99.90
5850;DHT22;2951;47.712;9.400;2023-12-20T10:11:20;6.30;99.90
5850;DHT22;2951;47.712;9.400;2023-12-20T10:13:47;6.40;99.90
5850;DHT22;2951;47.712;9.400;2023-12-20T10:16:14;6.30;99.90
5850;DHT22;2951;47.712;9.400;2023-12-20T10:18:41;6.30;99.90
5850;DHT22;2951;47.712;9.400;2023-12-20T10:21:08;6.40;99.90
5850;DHT22;2951;47.712;9.400;2023-12-20T10:23:37;6.40;99.90
5850;DHT22;2951;47.712;9.400;2023-12-20T10:26:03;6.50;99.90
5850;DHT22;2951;47.712;9.400;2023-12-20T10:28:32;6.60;99.90
5850;DHT22;2951;47.712;9.400;2023-12-20T10:31:01;6.60;99.90
5850;DHT22;2951;47.712;9.400;2023-12-20T10:33:28;6.70;99.90
5850;DHT22;2951;47.712;9.400;2023-12-20T10:35:55;6.70;99.90
5850;DHT22;2951;47.712;9.400;2023-12-20T10:38:23;6.80;99.90
5850;DHT22;2951;47.712;9.400;2023-12-20T10:40:52;6.90;99.90
5850;DHT22;2951;47.712;9.400;2023-12-20T10:43:20;7.00;99.90
5850;DHT22;2951;47.712;9.400;2023-12-20T10:45:48;7.00;99.90
5850;DHT22;2951;47.712;9.400;2023-12-20T10:48:14;7.10;99.90
5850;DHT22;2951;47.712;9.400;2023-12-20T10:50:42;7.10;99.90
5850;DHT22;2951;47.712;9.400;2023-12-20T10:53:10;7.00;99.90
5850;DHT22;2951;47.712;9.400;2023-12-20T10:55:39;6.90;99.90
5850;DHT22;2951;47.712;9.400;2023-12-20T10:58:08;7.00;99.90
5850;DHT22;2951;47.712;9.400;2023-12-20T11:00:38;7.10;99.90
5850;DHT22;2951;47.712;9.400;2023-12-20T11:03:06;7.20;99.90
5850;DHT22;2951;47.712;9.400;2023-12-20T11:05:43;7.30;99.90
5850;DHT22;2951;47.712;9.400;2023-12-20T11:08:33;7.30;99.90
5850;DHT22;2951;47.712;9.400;2023-12-20T11:11:04;7.20;99.90
5850;DHT22;2951;47.712;9.400;2023-12-20T11:13:34;7.20;99.90
5850;DHT22;2951;47.712;9.400;2023-12-20T11:16:02;7.10;99.90
5850;DHT22;2951;47.712;9.400;2023-12-20T11:18:30;6.90;99.90
5850;DHT22;2951;47.712;9.400;2023-12-20T11:21:00;6.90;99.90
5850;DHT22;2951;47.712;9.400;2023-12-20T11:23:29;6.90;99.90
5850;DHT22;2951;47.712;9.400;2023-12-20T11:25:56;7.00;99.90
5850;DHT22;2951;47.712;9.400;2023-12-20T11:28:28;7.00;99.90
5850;DHT22;2951;47.712;9.400;2023-12-20T11:30:57;7.10;99.90
5850;DHT22;2951;47.712;9.400;2023-12-20T11:33:36;7.20;99.90
5850;DHT22;2951;47.712;9.400;2023-12-20T11:36:03;7.30;99.90
5850;DHT22;2951;47.712;9.400;2023-12-20T11:38:36;7.20;99.90
5850;DHT22;2951;47.712;9.400;2023-12-20T11:41:05;7.30;99.90
5850;DHT22;2951;47.712;9.400;2023-12-20T11:43:36;7.30;99.90
5850;DHT22;2951;47.712;9.400;2023-12-20T11:46:07;7.30;99.90
5850;DHT22;2951;47.712;9.400;2023-12-20T11:48:37;7.20;99.90
5850;DHT22;2951;47.712;9.400;2023-12-20T11:51:13;7.30;99.90
5850;DHT22;2951;47.712;9.400;2023-12-20T11:53:41;7.30;99.90
5850;DHT22;2951;47.712;9.400;2023-12-20T11:56:10;7.30;99.90
5850;DHT22;2951;47.712;9.400;2023-12-20T11:58:37;7.40;99.90
5850;DHT22;2951;47.712;9.400;2023-12-20T12:01:06;7.30;99.90
5850;DHT22;2951;47.712;9.400;2023-12-20T12:03:36;7.50;99.90
5850;DHT22;2951;47.712;9.400;2023-12-20T12:06:03;7.60;99.90
5850;DHT22;2951;47.712;9.400;2023-12-20T12:08:31;7.60;99.90
5850;DHT22;2951;47.712;9.400;2023-12-20T12:11:00;7.60;99.90
5850;DHT22;2951;47.712;9.400;2023-12-20T12:13:26;7.50;99.90
5850;DHT22;2951;47.712;9.400;2023-12-20T12:15:54;7.40;99.90
5850;DHT22;2951;47.712;9.400;2023-12-20T12:18:21;7.40;99.90
5850;DHT22;2951;47.712;9.400;2023-12-20T12:20:48;7.40;99.90
5850;DHT22;2951;47.712;9.400;2023-12-20T12:23:15;7.40;99.90
5850;DHT22;2951;47.712;9.400;2023-12-20T12:25:49;7.30;99.90
5850;DHT22;2951;47.712;9.400;2023-12-20T12:28:16;7.30;99.90
5850;DHT22;2951;47.712;9.400;2023-12-20T12:30:55;7.20;99.90
5850;DHT22;2951;47.712;9.400;2023-12-20T12:33:29;7.30;99.90
5850;DHT22;2951;47.712;9.400;2023-12-20T12:35:56;7.50;99.90
5850;DHT22;2951;47.712;9.400;2023-12-20T12:38:23;7.70;99.90
5850;DHT22;2951;47.712;9.400;2023-12-20T12:40:54;7.70;99.90
5850;DHT22;2951;47.712;9.400;2023-12-20T12:43:21;7.70;99.90
5850;DHT22;2951;47.712;9.400;2023-12-20T12:45:49;7.70;99.90
5850;DHT22;2951;47.712;9.400;2023-12-20T12:48:16;7.70;99.90
5850;DHT22;2951;47.712;9.400;2023-12-20T12:50:45;7.60;99.90
5850;DHT22;2951;47.712;9.400;2023-12-20T12:53:12;7.50;99.90
5850;DHT22;2951;47.712;9.400;2023-12-20T12:55:39;7.40;99.90
5850;DHT22;2951;47.712;9.400;2023-12-20T12:58:06;7.50;99.90
5850;DHT22;2951;47.712;9.400;2023-12-20T13:00:33;7.50;99.90
5850;DHT22;2951;47.712;9.400;2023-12-20T13:03:02;7.40;99.90
5850;DHT22;2951;47.712;9.400;2023-12-20T13:05:33;7.40;99.90
5850;DHT22;2951;47.712;9.400;2023-12-20T13:08:05;7.70;99.90
5850;DHT22;2951;47.712;9.400;2023-12-20T13:10:32;7.70;99.90
5850;DHT22;2951;47.712;9.400;2023-12-20T13:13:00;7.70;99.90
5850;DHT22;2951;47.712;9.400;2023-12-20T13:15:27;7.90;99.90
5850;DHT22;2951;47.712;9.400;2023-12-20T13:17:54;7.90;99.90
5850;DHT22;2951;47.712;9.400;2023-12-20T13:20:21;7.80;99.90
5850;DHT22;2951;47.712;9.400;2023-12-20T13:22:48;7.70;99.90
5850;DHT22;2951;47.712;9.400;2023-12-20T13:25:16;7.60;99.90
5850;DHT22;2951;47.712;9.400;2023-12-20T13:27:43;7.40;99.90
5850;DHT22;2951;47.712;9.400;2023-12-20T13:30:10;7.30;99.90
5850;DHT22;2951;47.712;9.400;2023-12-20T13:32:37;7.30;99.90
5850;DHT22;2951;47.712;9.400;2023-12-20T13:35:04;7.40;99.90
5850;DHT22;2951;47.712;9.400;2023-12-20T13:37:32;7.20;99.90
5850;DHT22;2951;47.712;9.400;2023-12-20T13:40:02;7.00;99.90
5850;DHT22;2951;47.712;9.400;2023-12-20T13:42:31;6.80;99.90
5850;DHT22;2951;47.712;9.400;2023-12-20T13:44:58;6.80;99.90
5850;DHT22;2951;47.712;9.400;2023-12-20T13:47:25;6.70;99.90
5850;DHT22;2951;47.712;9.400;2023-12-20T13:49:52;6.60;99.90
5850;DHT22;2951;47.712;9.400;2023-12-20T13:52:19;6.60;99.90
5850;DHT22;2951;47.712;9.400;2023-12-20T13:54:46;6.70;99.90
5850;DHT22;2951;47.712;9.400;2023-12-20T13:57:14;6.70;99.90
5850;DHT22;2951;47.712;9.400;2023-12-20T13:59:51;6.70;99.90
5850;DHT22;2951;47.712;9.400;2023-12-20T14:02:18;6.70;99.90
5850;DHT22;2951;47.712;9.400;2023-12-20T14:04:59;6.60;99.90
5850;DHT22;2951;47.712;9.400;2023-12-20T14:07:32;6.50;99.90
5850;DHT22;2951;47.712;9.400;2023-12-20T14:09:59;6.60;99.90
5850;DHT22;2951;47.712;9.400;2023-12-20T14:12:26;6.50;99.90
5850;DHT22;2951;47.712;9.400;2023-12-20T14:14:52;6.60;99.90
5850;DHT22;2951;47.712;9.400;2023-12-20T14:17:22;6.70;99.90
5850;DHT22;2951;47.712;9.400;2023-12-20T14:19:49;6.80;99.90
5850;DHT22;2951;47.712;9.400;2023-12-20T14:22:16;6.70;99.90
5850;DHT22;2951;47.712;9.400;2023-12-20T14:24:43;6.70;99.90
5850;DHT22;2951;47.712;9.400;2023-12-20T14:27:10;6.60;99.90
5850;DHT22;2951;47.712;9.400;2023-12-20T14:29:38;6.50;99.90
5850;DHT22;2951;47.712;9.400;2023-12-20T14:32:05;6.30;99.90
5850;DHT22;2951;47.712;9.400;2023-12-20T14:34:32;6.20;99.90
5850;DHT22;2951;47.712;9.400;2023-12-20T14:36:59;6.10;99.90
5850;DHT22;2951;47.712;9.400;2023-12-20T14:39:26;6.00;99.90
5850;DHT22;2951;47.712;9.400;2023-12-20T14:41:52;6.00;99.90
5850;DHT22;2951;47.712;9.400;2023-12-20T14:44:21;5.90;99.90
5850;DHT22;2951;47.712;9.400;2023-12-20T14:46:48;5.90;99.90
5850;DHT22;2951;47.712;9.400;2023-12-20T14:49:15;5.90;99.90
5850;DHT22;2951;47.712;9.400;2023-12-20T14:51:44;5.90;99.90
5850;DHT22;2951;47.712;9.400;2023-12-20T14:54:10;5.90;99.90
5850;DHT22;2951;47.712;9.400;2023-12-20T14:56:37;5.90;99.90
5850;DHT22;2951;47.712;9.400;2023-12-20T14:59:04;5.90;99.90
5850;DHT22;2951;47.712;9.400;2023-12-20T15:01:31;5.80;99.90
5850;DHT22;2951;47.712;9.400;2023-12-20T15:03:58;5.70;99.90
5850;DHT22;2951;47.712;9.400;2023-12-20T15:06:25;5.70;99.90
5850;DHT22;2951;47.712;9.400;2023-12-20T15:08:58;5.70;99.90
5850;DHT22;2951;47.712;9.400;2023-12-20T15:11:24;5.70;99.90
5850;DHT22;2951;47.712;9.400;2023-12-20T15:13:51;5.60;99.90
5850;DHT22;2951;47.712;9.400;2023-12-20T15:16:22;5.60;99.90
5850;DHT22;2951;47.712;9.400;2023-12-20T15:18:49;5.50;99.90
5850;DHT22;2951;47.712;9.400;2023-12-20T15:21:17;5.40;99.90
5850;DHT22;2951;47.712;9.400;2023-12-20T15:23:44;5.30;99.90
5850;DHT22;2951;47.712;9.400;2023-12-20T15:26:19;5.30;99.90
5850;DHT22;2951;47.712;9.400;2023-12-20T15:28:46;5.20;99.90
5850;DHT22;2951;47.712;9.400;2023-12-20T15:31:13;5.10;99.90
5850;DHT22;2951;47.712;9.400;2023-12-20T15:33:40;5.20;99.90
5850;DHT22;2951;47.712;9.400;2023-12-20T15:36:06;5.10;99.90
5850;DHT22;2951;47.712;9.400;2023-12-20T15:38:34;5.10;99.90
5850;DHT22;2951;47.712;9.400;2023-12-20T15:41:01;5.10;99.90
5850;DHT22;2951;47.712;9.400;2023-12-20T15:43:28;5.10;99.90
5850;DHT22;2951;47.712;9.400;2023-12-20T15:45:55;5.00;99.90
5850;DHT22;2951;47.712;9.400;2023-12-20T15:48:23;5.00;99.90
5850;DHT22;2951;47.712;9.400;2023-12-20T15:50:55;5.00;99.90
5850;DHT22;2951;47.712;9.400;2023-12-20T15:53:22;4.80;99.90
5850;DHT22;2951;47.712;9.400;2023-12-20T15:55:49;4.80;99.90
5850;DHT22;2951;47.712;9.400;2023-12-20T15:58:16;4.70;99.90
5850;DHT22;2951;47.712;9.400;2023-12-20T16:00:42;4.70;99.90
5850;DHT22;2951;47.712;9.400;2023-12-20T16:03:09;4.80;99.90
5850;DHT22;2951;47.712;9.400;2023-12-20T16:05:49;4.70;99.90
5850;DHT22;2951;47.712;9.400;2023-12-20T16:08:24;4.70;99.90
5850;DHT22;2951;47.712;9.400;2023-12-20T16:10:52;4.70;99.90
5850;DHT22;2951;47.712;9.400;2023-12-20T16:13:19;4.60;99.90
5850;DHT22;2951;47.712;9.400;2023-12-20T16:15:48;4.50;99.90
5850;DHT22;2951;47.712;9.400;2023-12-20T16:18:14;4.40;99.90
5850;DHT22;2951;47.712;9.400;2023-12-20T16:20:41;4.40;99.90
5850;DHT22;2951;47.712;9.400;2023-12-20T16:23:08;4.40;99.90
5850;DHT22;2951;47.712;9.400;2023-12-20T16:25:36;4.30;99.90
5850;DHT22;2951;47.712;9.400;2023-12-20T16:28:05;4.10;99.90